createdAt,value
2017-06-02T00:02:13.604Z,16.18
2017-06-02T00:04:41.871Z,14.58
2017-06-02T00:07:10.133Z,16.50
2017-06-02T00:09:38.386Z,16.62
2017-06-02T00:12:06.612Z,15.82
2017-06-02T00:14:34.883Z,14.84
2017-06-02T00:17:03.179Z,18.06
2017-06-02T00:19:31.434Z,18.66
2017-06-02T00:21:59.658Z,14.54
2017-06-02T00:24:27.937Z,16.12
2017-06-02T00:26:56.184Z,14.57
2017-06-02T00:29:24.459Z,23.46
2017-06-02T00:31:52.692Z,21.16
2017-06-02T00:34:22.132Z,18.54
2017-06-02T00:36:50.392Z,15.14
2017-06-02T00:39:18.663Z,16.42
2017-06-02T00:41:46.940Z,17.36
2017-06-02T00:44:15.182Z,18.90
2017-06-02T00:46:43.420Z,15.02
2017-06-02T00:49:11.708Z,17.44
2017-06-02T00:51:39.953Z,17.02
2017-06-02T00:54:08.185Z,15.50
2017-06-02T00:56:36.500Z,19.10
2017-06-02T00:59:04.749Z,17.25
2017-06-02T01:01:33.052Z,14.73
2017-06-02T01:04:01.338Z,18.60
2017-06-02T01:06:29.573Z,20.57
2017-06-02T01:08:57.852Z,20.00
2017-06-02T01:11:26.180Z,19.80
2017-06-02T01:13:54.463Z,15.88
2017-06-02T01:16:22.744Z,14.62
2017-06-02T01:18:51.028Z,14.08
2017-06-02T01:21:19.265Z,14.15
2017-06-02T01:23:47.559Z,14.27
2017-06-02T01:26:15.843Z,17.62
2017-06-02T01:28:44.123Z,15.25
2017-06-02T01:31:12.364Z,15.30
2017-06-02T01:33:40.603Z,16.17
2017-06-02T01:36:08.845Z,14.80
2017-06-02T01:38:37.123Z,21.63
2017-06-02T01:41:05.399Z,16.33
2017-06-02T01:43:33.679Z,22.78
2017-06-02T01:46:01.960Z,16.60
2017-06-02T01:48:30.228Z,20.18
2017-06-02T01:50:58.470Z,17.55
2017-06-02T01:53:26.747Z,18.57
2017-06-02T01:55:56.797Z,12.48
2017-06-02T01:58:25.078Z,14.25
2017-06-02T02:00:53.356Z,12.08
2017-06-02T02:03:21.636Z,15.20
2017-06-02T02:05:49.905Z,14.24
2017-06-02T02:08:18.186Z,17.95
2017-06-02T02:10:46.455Z,18.16
2017-06-02T02:13:14.684Z,16.34
2017-06-02T02:15:42.964Z,13.48
2017-06-02T02:18:11.239Z,14.72
2017-06-02T02:20:39.462Z,13.84
2017-06-02T02:23:07.742Z,15.10
2017-06-02T02:25:36.018Z,15.28
2017-06-02T02:28:04.288Z,13.36
2017-06-02T02:30:32.559Z,12.46
2017-06-02T02:33:00.831Z,13.58
2017-06-02T02:35:29.057Z,14.00
2017-06-02T02:37:57.319Z,10.24
2017-06-02T02:40:25.580Z,9.14
2017-06-02T02:42:53.809Z,9.84
2017-06-02T02:45:22.071Z,8.90
2017-06-02T02:47:50.340Z,9.10
2017-06-02T02:50:18.603Z,11.12
2017-06-02T02:52:46.875Z,11.40
2017-06-02T02:55:15.136Z,12.58
2017-06-02T02:57:43.369Z,12.50
2017-06-02T03:00:11.631Z,15.62
2017-06-02T03:02:39.900Z,13.20
2017-06-02T03:05:08.171Z,16.14
2017-06-02T03:07:36.436Z,10.42
2017-06-02T03:10:04.708Z,13.94
2017-06-02T03:12:32.971Z,11.90
2017-06-02T03:15:01.231Z,11.58
2017-06-02T03:17:29.456Z,13.22
2017-06-02T03:19:57.696Z,12.48
2017-06-02T03:22:25.975Z,12.42
2017-06-02T03:24:54.239Z,8.60
2017-06-02T03:27:22.507Z,11.14
2017-06-02T03:29:50.771Z,11.80
2017-06-02T03:32:19.039Z,13.06
2017-06-02T03:34:47.264Z,10.36
2017-06-02T03:37:15.554Z,9.36
2017-06-02T03:39:43.811Z,8.30
2017-06-02T03:42:12.033Z,9.40
2017-06-02T03:44:40.299Z,8.86
2017-06-02T03:47:08.572Z,6.48
2017-06-02T03:49:36.835Z,9.54
2017-06-02T03:52:05.105Z,8.40
2017-06-02T03:54:33.378Z,8.56
2017-06-02T03:57:01.639Z,8.02
2017-06-02T03:59:29.903Z,6.48
2017-06-02T04:01:58.168Z,7.50
2017-06-02T04:04:26.431Z,7.74
2017-06-02T04:06:54.688Z,6.20
2017-06-02T04:09:22.958Z,9.18
2017-06-02T04:11:51.225Z,7.64
2017-06-02T04:14:19.452Z,9.42
2017-06-02T04:16:47.726Z,9.22
2017-06-02T04:19:15.987Z,9.28
2017-06-02T04:21:44.252Z,9.34
2017-06-02T04:24:12.519Z,11.20
2017-06-02T04:26:40.741Z,9.48
2017-06-02T04:29:08.968Z,8.84
2017-06-02T04:31:37.239Z,7.04
2017-06-02T04:34:05.504Z,6.58
2017-06-02T04:36:33.762Z,7.16
2017-06-02T04:39:01.990Z,7.32
2017-06-02T04:41:30.292Z,8.14
2017-06-02T04:43:58.552Z,7.82
2017-06-02T04:46:26.768Z,7.56
2017-06-02T04:48:55.044Z,5.52
2017-06-02T04:51:23.308Z,6.72
2017-06-02T04:53:51.585Z,5.92
2017-06-02T04:56:19.852Z,9.10
2017-06-02T04:58:48.111Z,8.10
2017-06-02T05:01:16.332Z,9.52
2017-06-02T05:03:44.564Z,10.74
2017-06-02T05:06:12.904Z,7.02
2017-06-02T05:08:41.159Z,7.40
2017-06-02T05:11:09.380Z,9.52
2017-06-02T05:13:37.655Z,7.26
2017-06-02T05:16:05.923Z,8.36
2017-06-02T05:18:34.192Z,7.76
2017-06-02T05:21:02.457Z,6.66
2017-06-02T05:23:30.727Z,7.80
2017-06-02T05:25:58.992Z,6.60
2017-06-02T05:28:27.255Z,6.06
2017-06-02T05:30:55.507Z,7.12
2017-06-02T05:33:23.728Z,8.54
2017-06-02T05:35:51.991Z,5.54
2017-06-02T05:38:20.283Z,5.78
2017-06-02T05:40:48.524Z,8.04
2017-06-02T05:43:16.795Z,6.78
2017-06-02T05:45:45.020Z,9.06
2017-06-02T05:48:13.279Z,7.42
2017-06-02T05:50:41.563Z,6.54
2017-06-02T05:53:09.833Z,5.38
2017-06-02T05:55:38.103Z,7.92
2017-06-02T05:58:06.376Z,6.92
2017-06-02T06:00:34.605Z,7.20
2017-06-02T06:03:02.862Z,7.60
2017-06-02T06:05:31.127Z,6.62
2017-06-02T06:07:59.403Z,6.76
2017-06-02T06:10:27.626Z,10.90
2017-06-02T06:12:55.895Z,8.70
2017-06-02T06:15:24.163Z,6.98
2017-06-02T06:17:52.433Z,8.38
2017-06-02T06:20:20.656Z,6.24
2017-06-02T06:22:48.927Z,5.08
2017-06-02T06:25:17.136Z,5.32
2017-06-02T06:27:45.364Z,8.92
2017-06-02T06:30:13.636Z,7.76
2017-06-02T06:32:41.860Z,10.32
2017-06-02T06:35:10.128Z,8.70
2017-06-02T06:37:38.352Z,6.88
2017-06-02T06:40:06.620Z,5.40
2017-06-02T06:42:34.887Z,6.52
2017-06-02T06:45:03.155Z,7.96
2017-06-02T06:47:31.419Z,6.60
2017-06-02T06:49:59.679Z,7.54
2017-06-02T06:52:27.951Z,8.14
2017-06-02T06:54:56.211Z,6.50
2017-06-02T06:57:24.473Z,6.34
2017-06-02T06:59:52.727Z,5.64
2017-06-02T07:02:20.987Z,8.10
2017-06-02T07:04:49.213Z,6.88
2017-06-02T07:07:17.487Z,8.14
2017-06-02T07:09:45.743Z,5.90
2017-06-02T07:12:14.006Z,6.84
2017-06-02T07:14:42.268Z,6.82
2017-06-02T07:17:10.531Z,7.12
2017-06-02T07:19:38.760Z,9.16
2017-06-02T07:22:07.019Z,5.50
2017-06-02T07:24:35.329Z,6.16
2017-06-02T07:27:03.549Z,6.28
2017-06-02T07:29:31.816Z,7.68
2017-06-02T07:32:00.088Z,8.18
2017-06-02T07:34:28.359Z,6.76
2017-06-02T07:36:56.623Z,7.66
2017-06-02T07:39:24.884Z,8.04
2017-06-02T07:41:53.106Z,8.26
2017-06-02T07:44:21.341Z,6.30
2017-06-02T07:46:49.631Z,7.16
2017-06-02T07:49:17.911Z,6.24
2017-06-02T07:51:46.134Z,7.40
2017-06-02T07:54:14.399Z,6.08
2017-06-02T07:56:42.617Z,7.76
2017-06-02T07:59:10.904Z,7.86
2017-06-02T08:01:39.219Z,6.98
2017-06-02T08:04:07.484Z,8.68
2017-06-02T08:06:35.748Z,7.32
2017-06-02T08:09:04.011Z,7.68
2017-06-02T08:11:32.276Z,9.14
2017-06-02T08:14:00.491Z,9.40
2017-06-02T08:16:28.763Z,7.66
2017-06-02T08:18:57.011Z,8.62
2017-06-02T08:21:25.276Z,9.38
2017-06-02T08:23:53.531Z,7.94
2017-06-02T08:26:21.753Z,8.28
2017-06-02T08:28:50.019Z,8.36
2017-06-02T08:31:18.279Z,8.82
2017-06-02T08:33:46.539Z,8.18
2017-06-02T08:36:14.800Z,9.80
2017-06-02T08:38:43.063Z,7.54
2017-06-02T08:41:11.329Z,8.64
2017-06-02T08:43:38.818Z,7.84
2017-06-02T08:46:07.060Z,8.06
2017-06-02T08:48:35.300Z,8.00
2017-06-02T08:51:03.497Z,8.98
2017-06-02T08:53:31.716Z,8.48
2017-06-02T08:55:59.984Z,8.66
2017-06-02T08:58:28.239Z,11.42
2017-06-02T09:00:56.476Z,8.10
2017-06-02T09:03:24.731Z,7.16
2017-06-02T09:05:52.995Z,11.14
2017-06-02T09:08:21.251Z,8.98
2017-06-02T09:10:49.523Z,11.42
2017-06-02T09:13:17.791Z,8.66
2017-06-02T09:15:46.057Z,8.02
2017-06-02T09:18:14.330Z,9.76
2017-06-02T09:20:42.552Z,11.36
2017-06-02T09:23:10.784Z,12.42
2017-06-02T09:25:39.009Z,10.62
2017-06-02T09:28:07.283Z,7.52
2017-06-02T09:30:35.544Z,6.82
2017-06-02T09:33:03.813Z,9.36
2017-06-02T09:35:32.084Z,8.80
2017-06-02T09:38:00.338Z,15.92
2017-06-02T09:40:28.607Z,10.06
2017-06-02T09:42:56.875Z,8.36
2017-06-02T09:45:25.141Z,8.68
2017-06-02T09:47:53.407Z,10.92
2017-06-02T09:50:21.671Z,11.36
2017-06-02T09:52:49.923Z,8.58
2017-06-02T09:55:18.235Z,8.46
2017-06-02T09:57:46.500Z,8.44
2017-06-02T10:00:14.751Z,9.42
2017-06-02T10:02:43.011Z,8.84
2017-06-02T10:05:11.283Z,10.70
2017-06-02T10:07:39.550Z,10.36
2017-06-02T10:10:07.802Z,9.22
2017-06-02T10:12:36.063Z,9.94
2017-06-02T10:15:04.328Z,7.90
2017-06-02T10:17:32.591Z,8.02
2017-06-02T10:20:00.832Z,8.82
2017-06-02T10:22:29.083Z,9.82
2017-06-02T10:24:57.338Z,7.94
2017-06-02T10:27:25.587Z,7.48
2017-06-02T10:29:53.853Z,7.90
2017-06-02T10:32:22.104Z,9.50
2017-06-02T10:34:50.354Z,8.22
2017-06-02T10:37:18.601Z,8.18
2017-06-02T10:39:46.860Z,5.94
2017-06-02T10:42:15.124Z,5.56
2017-06-02T10:44:43.339Z,6.74
2017-06-02T10:47:11.640Z,6.10
2017-06-02T10:49:39.857Z,7.64
2017-06-02T10:52:08.123Z,6.76
2017-06-02T10:54:36.380Z,7.36
2017-06-02T10:57:04.648Z,6.90
2017-06-02T10:59:32.874Z,7.16
2017-06-02T11:02:01.088Z,7.86
2017-06-02T11:04:29.367Z,9.04
2017-06-02T11:06:57.628Z,8.36
2017-06-02T11:09:25.869Z,9.60
2017-06-02T11:11:54.142Z,7.62
2017-06-02T11:14:22.403Z,7.32
2017-06-02T11:16:50.629Z,6.52
2017-06-02T11:19:18.903Z,6.06
2017-06-02T11:21:47.151Z,4.72
2017-06-02T11:24:15.377Z,4.56
2017-06-02T11:26:43.604Z,4.40
2017-06-02T11:29:11.813Z,7.06
2017-06-02T11:31:40.083Z,5.30
2017-06-02T11:34:08.347Z,5.24
2017-06-02T11:36:36.565Z,4.98
2017-06-02T11:39:04.819Z,5.68
2017-06-02T11:41:33.083Z,4.72
2017-06-02T11:44:01.348Z,6.22
2017-06-02T11:46:29.564Z,5.24
2017-06-02T11:48:57.832Z,4.98
2017-06-02T11:51:26.139Z,6.10
2017-06-02T11:53:54.403Z,5.46
2017-06-02T11:56:22.675Z,4.80
2017-06-02T11:58:50.900Z,4.52
2017-06-02T12:01:19.159Z,5.14
2017-06-02T12:03:47.389Z,5.48
2017-06-02T12:06:15.655Z,5.76
2017-06-02T12:08:43.918Z,4.98
2017-06-02T12:11:12.183Z,4.88
2017-06-02T12:13:40.436Z,5.32
2017-06-02T12:16:08.703Z,4.98
2017-06-02T12:18:36.924Z,5.24
2017-06-02T12:21:05.195Z,5.06
2017-06-02T12:23:33.447Z,6.44
2017-06-02T12:26:01.668Z,4.52
2017-06-02T12:28:29.916Z,4.88
2017-06-02T12:30:58.217Z,6.04
2017-06-02T12:33:26.479Z,4.22
2017-06-02T12:35:54.743Z,4.30
2017-06-02T12:38:23.007Z,4.30
2017-06-02T12:40:51.264Z,3.64
2017-06-02T12:43:19.541Z,4.40
2017-06-02T12:45:47.799Z,3.54
2017-06-02T12:48:16.059Z,3.68
2017-06-02T12:50:44.323Z,3.86
2017-06-02T12:53:12.550Z,5.68
2017-06-02T12:55:40.831Z,3.84
2017-06-02T12:58:09.054Z,4.56
2017-06-02T13:00:37.323Z,3.94
2017-06-02T13:03:05.542Z,4.12
2017-06-02T13:05:33.803Z,4.32
2017-06-02T13:08:02.075Z,4.52
2017-06-02T13:10:30.342Z,5.54
2017-06-02T13:12:58.603Z,5.42
2017-06-02T13:15:26.860Z,4.80
2017-06-02T13:17:55.129Z,5.88
2017-06-02T13:20:23.367Z,4.44
2017-06-02T13:22:51.630Z,5.32
2017-06-02T13:25:19.840Z,5.38
2017-06-02T13:27:48.103Z,5.12
2017-06-02T13:30:16.367Z,5.68
2017-06-02T13:32:44.643Z,5.42
2017-06-02T13:35:12.865Z,5.42
2017-06-02T13:37:41.091Z,5.92
2017-06-02T13:40:09.316Z,4.72
2017-06-02T13:42:37.581Z,5.10
2017-06-02T13:45:05.847Z,5.16
2017-06-02T13:47:34.068Z,4.88
2017-06-02T13:50:02.332Z,4.90
2017-06-02T13:52:30.595Z,6.48
2017-06-02T13:54:58.867Z,5.54
2017-06-02T13:57:27.096Z,5.20
2017-06-02T13:59:55.321Z,5.28
2017-06-02T14:02:23.588Z,7.62
2017-06-02T14:04:51.839Z,5.34
2017-06-02T14:07:20.065Z,5.94
2017-06-02T14:09:48.340Z,5.56
2017-06-02T14:12:16.565Z,5.28
2017-06-02T14:14:44.780Z,5.40
2017-06-02T14:17:13.047Z,6.32
2017-06-02T14:19:41.319Z,5.56
2017-06-02T14:22:09.579Z,4.86
2017-06-02T14:24:37.898Z,6.60
2017-06-02T14:27:06.160Z,7.06
2017-06-02T14:29:34.380Z,4.52
2017-06-02T14:32:02.651Z,5.52
2017-06-02T14:34:30.917Z,5.26
2017-06-02T14:36:59.195Z,6.40
2017-06-02T14:39:27.456Z,5.14
2017-06-02T14:41:55.715Z,8.04
2017-06-02T14:44:23.967Z,5.54
2017-06-02T14:46:52.207Z,6.32
2017-06-02T14:49:20.478Z,5.18
2017-06-02T14:51:48.731Z,5.42
2017-06-02T14:54:16.991Z,5.38
2017-06-02T14:56:45.256Z,5.28
2017-06-02T14:59:13.515Z,7.74
2017-06-02T15:01:41.779Z,4.90
2017-06-02T15:04:10.081Z,7.04
2017-06-02T15:06:38.347Z,7.76
2017-06-02T15:09:06.635Z,5.40
2017-06-02T15:11:34.856Z,4.40
2017-06-02T15:14:03.120Z,5.18
2017-06-02T15:16:31.424Z,5.62
2017-06-02T15:18:59.688Z,4.58
2017-06-02T15:21:27.947Z,6.18
2017-06-02T15:23:56.203Z,6.22
2017-06-02T15:26:24.492Z,6.56
2017-06-02T15:28:52.767Z,9.36
2017-06-02T15:31:21.031Z,7.50
2017-06-02T15:33:49.296Z,6.82
2017-06-02T15:36:17.553Z,7.14
2017-06-02T15:38:45.824Z,7.00
2017-06-02T15:41:14.088Z,7.40
2017-06-02T15:43:42.355Z,8.36
2017-06-02T15:46:10.612Z,8.16
2017-06-02T15:48:38.876Z,7.40
2017-06-02T15:51:07.132Z,9.66
2017-06-02T15:53:35.396Z,8.58
2017-06-02T15:56:03.668Z,8.00
2017-06-02T15:58:31.931Z,6.98
2017-06-02T16:01:00.202Z,7.86
2017-06-02T16:03:28.423Z,8.22
2017-06-02T16:05:56.689Z,7.88
2017-06-02T16:08:24.952Z,7.42
2017-06-02T16:10:53.213Z,7.76
2017-06-02T16:13:21.435Z,6.86
2017-06-02T16:15:49.673Z,6.64
2017-06-02T16:18:17.948Z,5.98
2017-06-02T16:20:46.217Z,6.60
2017-06-02T16:23:14.483Z,7.00
2017-06-02T16:25:42.749Z,5.66
2017-06-02T16:28:11.015Z,6.16
2017-06-02T16:30:39.280Z,6.20
2017-06-02T16:33:07.549Z,5.16
2017-06-02T16:35:35.807Z,7.50
2017-06-02T16:38:04.067Z,5.76
2017-06-02T16:40:32.339Z,6.04
2017-06-02T16:43:00.596Z,6.46
2017-06-02T16:45:28.864Z,7.08
2017-06-02T16:47:57.119Z,6.32
2017-06-02T16:50:25.383Z,6.68
2017-06-02T16:52:53.592Z,7.84
2017-06-02T16:55:21.859Z,7.64
2017-06-02T16:57:50.097Z,7.14
2017-06-02T17:00:18.452Z,7.90
2017-06-02T17:02:46.712Z,8.16
2017-06-02T17:05:14.968Z,9.20
2017-06-02T17:07:43.235Z,7.62
2017-06-02T17:10:12.203Z,7.10
2017-06-02T17:12:40.420Z,7.28
2017-06-02T17:15:08.638Z,7.48
2017-06-02T17:17:36.903Z,8.06
2017-06-02T17:20:05.167Z,8.00
2017-06-02T17:22:33.430Z,8.68
2017-06-02T17:25:01.692Z,8.08
2017-06-02T17:27:29.954Z,7.56
2017-06-02T17:29:58.223Z,10.26
2017-06-02T17:32:26.476Z,8.68
2017-06-02T17:34:54.732Z,8.58
2017-06-02T17:37:22.987Z,8.62
2017-06-02T17:39:51.208Z,9.30
2017-06-02T17:42:19.481Z,8.56
2017-06-02T17:44:47.745Z,8.84
2017-06-02T17:47:15.995Z,8.46
2017-06-02T17:49:44.264Z,9.44
2017-06-02T17:52:12.591Z,7.84
2017-06-02T17:54:40.866Z,7.16
2017-06-02T17:57:09.131Z,7.16
2017-06-02T17:59:37.395Z,7.84
2017-06-02T18:02:05.675Z,10.22
2017-06-02T18:04:33.912Z,7.48
2017-06-02T18:07:02.180Z,6.54
2017-06-02T18:09:30.448Z,6.84
2017-06-02T18:11:58.710Z,6.44
2017-06-02T18:14:26.967Z,7.30
2017-06-02T18:16:55.227Z,7.68
2017-06-02T18:19:23.492Z,7.22
2017-06-02T18:21:51.771Z,7.92
2017-06-02T18:24:20.026Z,7.14
2017-06-02T18:26:48.290Z,9.70
2017-06-02T18:29:16.551Z,8.90
2017-06-02T18:31:44.844Z,9.04
2017-06-02T18:34:13.073Z,9.36
2017-06-02T18:36:41.351Z,11.26
2017-06-02T18:39:09.627Z,11.34
2017-06-02T18:41:37.872Z,10.84
2017-06-02T18:44:06.139Z,11.16
2017-06-02T18:46:34.400Z,10.94
2017-06-02T18:49:02.668Z,9.06
2017-06-02T18:51:30.892Z,11.26
2017-06-02T18:53:59.167Z,9.12
2017-06-02T18:56:27.405Z,10.42
2017-06-02T18:58:55.692Z,10.94
2017-06-02T19:01:23.962Z,8.66
2017-06-02T19:03:52.243Z,12.96
2017-06-02T19:06:20.499Z,9.82
2017-06-02T19:08:49.270Z,9.80
2017-06-02T19:11:17.549Z,10.04
2017-06-02T19:13:45.836Z,9.66
2017-06-02T19:16:14.101Z,13.12
2017-06-02T19:18:42.320Z,11.32
2017-06-02T19:21:10.599Z,10.10
2017-06-02T19:23:38.908Z,14.38
2017-06-02T19:26:07.768Z,17.92
2017-06-02T19:28:36.039Z,18.46
2017-06-02T19:31:04.315Z,16.68
2017-06-02T19:33:32.599Z,14.30
2017-06-02T19:36:00.871Z,14.40
2017-06-02T19:38:29.161Z,13.38
2017-06-02T19:40:59.227Z,14.36
2017-06-02T19:43:27.492Z,11.48
2017-06-02T19:45:55.717Z,14.52
2017-06-02T19:48:24.008Z,14.54
2017-06-02T19:50:52.292Z,15.20
2017-06-02T19:53:20.528Z,13.38
2017-06-02T19:55:48.802Z,14.42
2017-06-02T19:58:17.088Z,16.44
2017-06-02T20:00:45.419Z,14.58
2017-06-02T20:03:13.684Z,15.28
2017-06-02T20:05:41.940Z,11.82
2017-06-02T20:08:10.252Z,14.52
2017-06-02T20:10:38.489Z,15.36
2017-06-02T20:13:06.735Z,26.30
2017-06-02T20:15:35.011Z,17.48
2017-06-02T20:18:03.271Z,15.04
2017-06-02T20:20:31.539Z,11.64
2017-06-02T20:22:59.815Z,14.28
2017-06-02T20:25:28.087Z,14.76
2017-06-02T20:27:56.360Z,12.40
2017-06-02T20:30:24.647Z,11.20
2017-06-02T20:32:52.922Z,14.26
2017-06-02T20:35:21.195Z,8.94
2017-06-02T20:37:49.479Z,13.56
2017-06-02T20:40:17.755Z,12.68
2017-06-02T20:42:46.039Z,22.46
2017-06-02T20:45:14.331Z,16.24
2017-06-02T20:47:42.595Z,15.88
2017-06-02T20:50:10.876Z,14.62
2017-06-02T20:52:39.151Z,13.18
2017-06-02T20:55:07.407Z,12.80
2017-06-02T20:57:35.683Z,18.14
2017-06-02T21:00:03.951Z,14.50
2017-06-02T21:02:32.224Z,17.46
2017-06-02T21:05:00.491Z,14.74
2017-06-02T21:07:28.763Z,15.42
2017-06-02T21:09:57.036Z,16.62
2017-06-02T21:12:25.320Z,14.22
2017-06-02T21:14:53.579Z,13.80
2017-06-02T21:17:21.856Z,13.66
2017-06-02T21:19:50.131Z,14.50
2017-06-02T21:22:18.408Z,16.08
2017-06-02T21:24:46.672Z,12.96
2017-06-02T21:27:14.944Z,14.60
2017-06-02T21:29:43.218Z,14.00
2017-06-02T21:32:11.483Z,12.18
2017-06-02T21:34:39.752Z,15.88
2017-06-02T21:37:08.023Z,13.92
2017-06-02T21:39:36.296Z,14.14
2017-06-02T21:42:04.533Z,14.14
2017-06-02T21:44:32.778Z,16.62
2017-06-02T21:47:01.045Z,11.00
2017-06-02T21:49:29.272Z,12.56
2017-06-02T21:51:57.579Z,13.94
2017-06-02T21:54:25.843Z,11.80
2017-06-02T21:56:54.120Z,12.20
2017-06-02T21:59:22.383Z,12.46
2017-06-02T22:01:50.685Z,14.60
2017-06-02T22:04:18.955Z,12.78
2017-06-02T22:06:47.231Z,15.24
2017-06-02T22:09:15.507Z,15.22
2017-06-02T22:11:43.804Z,18.00
2017-06-02T22:14:12.080Z,17.34
2017-06-02T22:16:40.339Z,19.86
2017-06-02T22:19:08.615Z,17.46
2017-06-02T22:21:36.879Z,21.54
2017-06-02T22:24:05.117Z,19.92
2017-06-02T22:26:33.451Z,16.24
2017-06-02T22:29:01.735Z,17.26
2017-06-02T22:31:29.961Z,22.82
2017-06-02T22:33:58.243Z,16.88
2017-06-02T22:36:26.533Z,18.78
2017-06-02T22:38:54.756Z,20.36
2017-06-02T22:41:23.036Z,17.90
2017-06-02T22:43:51.308Z,15.44
2017-06-02T22:46:19.583Z,18.52
2017-06-02T22:48:47.805Z,16.28
2017-06-02T22:51:50.976Z,19.40
2017-06-02T22:54:18.472Z,15.90
2017-06-02T22:56:45.972Z,17.93
2017-06-02T22:59:13.424Z,18.50
2017-06-02T23:01:40.927Z,21.57
2017-06-02T23:04:08.423Z,20.67
2017-06-02T23:06:35.870Z,22.80
2017-06-02T23:09:03.371Z,16.23
2017-06-02T23:11:30.883Z,19.27
2017-06-02T23:13:58.404Z,16.50
2017-06-02T23:16:25.894Z,28.60
2017-06-02T23:18:53.352Z,20.70
2017-06-02T23:21:20.856Z,22.40
2017-06-02T23:23:48.351Z,19.27
2017-06-02T23:26:15.818Z,18.97
2017-06-02T23:28:43.303Z,15.67
2017-06-02T23:31:10.803Z,17.13
2017-06-02T23:33:38.307Z,15.90
2017-06-02T23:36:05.803Z,15.50
2017-06-02T23:38:34.056Z,22.47
2017-06-02T23:41:01.551Z,17.90
2017-06-02T23:43:29.004Z,17.93
2017-06-02T23:45:56.509Z,18.97
2017-06-02T23:48:23.972Z,15.90
2017-06-02T23:50:51.474Z,16.70
2017-06-02T23:53:18.971Z,13.23
2017-06-02T23:55:46.472Z,13.53
2017-06-02T23:58:13.972Z,16.47
